Langley Air Force Base Hampton US
ICAO: KLFI
IATA: LFI
Category: Large
Scheduled Services: No

Elevation: 11 ft
TransAlt. 18000 ft.

Airport Communications:
NORFOLK APP/DEP:124.9
ATIS:27.01
CLNC DEL:118.85
GND:121.7
NASA OPS:123.375
PMSV METRO:23.98
CNSOLIDATED CMD POST:25.125
PTD:141.75
TWR:125

KLFI Zoom In..

Runways:

(A) RW 08 length 10002 ft width 150 ft
ILS 109.90 / hdg 78

(B) RW 26 length 10002 ft width 150 ft
ILS 109.90 / hdg 258

Location; KLFI
Day. 17 / Time. 06.56 Zulu
* Altimeter: 29.97
* Temperature: 26° c. 78.8°f.
* Wind from: 210° Speed 09 kn.
Dewpoint: 24° c.
Visibility: 10 Statute Miles.
Clouds: Clear (automated report).

KLFI 170656Z AUTO 21009KT 10SM CLR 26/24 A2997 RMK AO2 SLP155 T02570243 $


Wind From 210°
Speed 09 kn.

 
 
jpsmedia.com for Web Design worldairports.se 2018   terms of use